EZY8467 EGKK-LFRB
Flight info
| Callsign | EZY8467 |
|---|---|
| Flight time | 0h 50m |
| Altitude | 28000 |
| Route | IMVUR N63 SAM M195 MARUK N621 LELNA DCT BADUR T120 ANLEV |
| Aircraft | A320/M-SDE2E3FGHIJ1RWXYZ/LB1 |
Departure
| Time | 2026-04-26 12:38 |
|---|---|
| Airport | London Gatwick Airport (EGKK) |
Arrival
| Time | 2026-04-26 13:28 |
|---|---|
| Airport | Brest Bretagne airport (LFRB) |
| Time | Latitude | Longitude | Altitude | Speed | Heading |
|---|---|---|---|---|---|
| 2026-04-26 12:15 | 51.15659 | -0.17611 | 204 ft | 0 kts | 167° |
| 2026-04-26 12:26 | 51.15673 | -0.17615 | 212 ft | 3 kts | 169° |
| 2026-04-26 12:26 | 51.15693 | -0.17621 | 212 ft | 3 kts | 171° |
| 2026-04-26 12:26 | 51.15710 | -0.17626 | 210 ft | 3 kts | 174° |
| 2026-04-26 12:27 | 51.15729 | -0.17625 | 216 ft | 3 kts | 204° |
| 2026-04-26 12:27 | 51.15744 | -0.17608 | 212 ft | 3 kts | 238° |
| 2026-04-26 12:27 | 51.15752 | -0.17581 | 216 ft | 2 kts | 256° |
| 2026-04-26 12:27 | 51.15754 | -0.17568 | 216 ft | 1 kts | 257° |
| 2026-04-26 12:28 | 51.15754 | -0.17567 | 216 ft | 0 kts | 257° |
| 2026-04-26 12:30 | 51.15749 | -0.17597 | 216 ft | 7 kts | 256° |
| 2026-04-26 12:30 | 51.15736 | -0.17686 | 204 ft | 10 kts | 258° |
| 2026-04-26 12:31 | 51.15699 | -0.17957 | 204 ft | 15 kts | 257° |
| 2026-04-26 12:31 | 51.15674 | -0.18138 | 213 ft | 18 kts | 258° |
| 2026-04-26 12:31 | 51.15636 | -0.18341 | 205 ft | 15 kts | 229° |
| 2026-04-26 12:31 | 51.15552 | -0.18332 | 204 ft | 13 kts | 169° |
| 2026-04-26 12:32 | 51.15452 | -0.18297 | 213 ft | 16 kts | 167° |
| 2026-04-26 12:32 | 51.15335 | -0.18255 | 204 ft | 18 kts | 167° |
| 2026-04-26 12:32 | 51.15185 | -0.18326 | 211 ft | 11 kts | 260° |
| 2026-04-26 12:33 | 51.15171 | -0.18437 | 212 ft | 10 kts | 258° |
| 2026-04-26 12:33 | 51.15157 | -0.18538 | 208 ft | 9 kts | 258° |
| 2026-04-26 12:33 | 51.15141 | -0.18653 | 207 ft | 13 kts | 257° |
| 2026-04-26 12:33 | 51.15116 | -0.18827 | 206 ft | 18 kts | 255° |
| 2026-04-26 12:34 | 51.15086 | -0.19041 | 215 ft | 20 kts | 258° |
| 2026-04-26 12:34 | 51.15059 | -0.19250 | 204 ft | 18 kts | 258° |
| 2026-04-26 12:34 | 51.15034 | -0.19438 | 206 ft | 16 kts | 258° |
| 2026-04-26 12:34 | 51.15010 | -0.19603 | 210 ft | 14 kts | 257° |
| 2026-04-26 12:35 | 51.14990 | -0.19749 | 204 ft | 14 kts | 257° |
| 2026-04-26 12:35 | 51.14964 | -0.19936 | 207 ft | 20 kts | 258° |
| 2026-04-26 12:35 | 51.14931 | -0.20168 | 205 ft | 22 kts | 257° |
| 2026-04-26 12:35 | 51.14897 | -0.20403 | 213 ft | 22 kts | 257° |
| 2026-04-26 12:36 | 51.14863 | -0.20604 | 206 ft | 17 kts | 238° |
| 2026-04-26 12:36 | 51.14772 | -0.20697 | 207 ft | 15 kts | 207° |
| 2026-04-26 12:36 | 51.14682 | -0.20709 | 204 ft | 12 kts | 166° |
| 2026-04-26 12:36 | 51.14611 | -0.20680 | 205 ft | 9 kts | 151° |
| 2026-04-26 12:37 | 51.14601 | -0.20585 | 205 ft | 11 kts | 77° |
| 2026-04-26 12:37 | 51.14620 | -0.20441 | 208 ft | 20 kts | 79° |
| 2026-04-26 12:37 | 51.14701 | -0.19853 | 207 ft | 88 kts | 78° |
| 2026-04-26 12:37 | 51.14876 | -0.18580 | 208 ft | 145 kts | 77° |
| 2026-04-26 12:38 | 51.15111 | -0.16925 | 663 ft | 151 kts | 78° |
| 2026-04-26 12:38 | 51.15344 | -0.15294 | 1397 ft | 150 kts | 79° |
| 2026-04-26 12:38 | 51.15573 | -0.13653 | 1901 ft | 161 kts | 79° |
| 2026-04-26 12:38 | 51.15821 | -0.11790 | 2164 ft | 183 kts | 79° |
| 2026-04-26 12:39 | 51.16102 | -0.09679 | 2452 ft | 207 kts | 79° |
| 2026-04-26 12:39 | 51.16430 | -0.07321 | 2968 ft | 223 kts | 75° |
| 2026-04-26 12:39 | 51.17281 | -0.05246 | 3809 ft | 231 kts | 39° |
| 2026-04-26 12:39 | 51.18819 | -0.04439 | 4581 ft | 240 kts | 2° |
| 2026-04-26 12:40 | 51.20497 | -0.04779 | 5296 ft | 250 kts | 344° |
| 2026-04-26 12:40 | 51.21577 | -0.05556 | 5531 ft | 265 kts | 324° |
| 2026-04-26 12:40 | 51.23019 | -0.08743 | 6429 ft | 276 kts | 283° |
| 2026-04-26 12:40 | 51.23034 | -0.11777 | 7251 ft | 277 kts | 254° |
| 2026-04-26 12:41 | 51.22640 | -0.13723 | 7814 ft | 278 kts | 251° |
| 2026-04-26 12:41 | 51.22137 | -0.16756 | 8663 ft | 280 kts | 257° |
| 2026-04-26 12:41 | 51.21763 | -0.19788 | 9504 ft | 283 kts | 259° |
| 2026-04-26 12:41 | 51.21417 | -0.22897 | 10354 ft | 285 kts | 259° |
| 2026-04-26 12:42 | 51.21063 | -0.26031 | 11146 ft | 286 kts | 259° |
| 2026-04-26 12:42 | 51.20692 | -0.29137 | 11874 ft | 290 kts | 258° |
| 2026-04-26 12:42 | 51.20295 | -0.32294 | 12647 ft | 292 kts | 258° |
| 2026-04-26 12:42 | 51.19878 | -0.35500 | 13362 ft | 296 kts | 258° |
| 2026-04-26 12:43 | 51.19451 | -0.38721 | 14127 ft | 297 kts | 257° |
| 2026-04-26 12:43 | 51.19012 | -0.41962 | 14767 ft | 300 kts | 257° |
| 2026-04-26 12:43 | 51.18564 | -0.45230 | 15415 ft | 302 kts | 257° |
| 2026-04-26 12:43 | 51.18115 | -0.48488 | 16039 ft | 305 kts | 257° |
| 2026-04-26 12:44 | 51.17660 | -0.51804 | 16695 ft | 307 kts | 256° |
| 2026-04-26 12:44 | 51.16996 | -0.55063 | 17163 ft | 316 kts | 246° |
| 2026-04-26 12:44 | 51.16120 | -0.58392 | 17293 ft | 335 kts | 246° |
| 2026-04-26 12:44 | 51.15185 | -0.61894 | 17578 ft | 348 kts | 246° |
| 2026-04-26 12:45 | 51.14227 | -0.65471 | 18128 ft | 353 kts | 246° |
| 2026-04-26 12:45 | 51.13257 | -0.69086 | 18746 ft | 356 kts | 246° |
| 2026-04-26 12:45 | 51.12281 | -0.72725 | 19273 ft | 358 kts | 246° |
| 2026-04-26 12:45 | 51.11312 | -0.76343 | 19809 ft | 361 kts | 246° |
| 2026-04-26 12:46 | 51.10321 | -0.80036 | 20331 ft | 364 kts | 246° |
| 2026-04-26 12:46 | 51.09320 | -0.83759 | 20856 ft | 367 kts | 246° |
| 2026-04-26 12:46 | 51.08309 | -0.87517 | 21377 ft | 370 kts | 246° |
| 2026-04-26 12:46 | 51.07289 | -0.91295 | 21896 ft | 373 kts | 246° |
| 2026-04-26 12:47 | 51.06259 | -0.95108 | 22390 ft | 376 kts | 246° |
| 2026-04-26 12:47 | 51.05233 | -0.98906 | 22910 ft | 379 kts | 246° |
| 2026-04-26 12:47 | 51.04183 | -1.02783 | 23408 ft | 383 kts | 246° |
| 2026-04-26 12:47 | 51.03123 | -1.06683 | 23901 ft | 386 kts | 246° |
| 2026-04-26 12:48 | 51.02054 | -1.10608 | 24307 ft | 388 kts | 246° |
| 2026-04-26 12:48 | 51.00977 | -1.14556 | 24730 ft | 390 kts | 246° |
| 2026-04-26 12:48 | 50.99894 | -1.18531 | 25151 ft | 392 kts | 246° |
| 2026-04-26 12:48 | 50.98812 | -1.22505 | 25566 ft | 394 kts | 246° |
| 2026-04-26 12:49 | 50.97723 | -1.26496 | 25985 ft | 395 kts | 246° |
| 2026-04-26 12:49 | 50.96537 | -1.30442 | 26362 ft | 397 kts | 239° |
| 2026-04-26 12:49 | 50.94957 | -1.33982 | 26737 ft | 399 kts | 230° |
| 2026-04-26 12:49 | 50.92964 | -1.37065 | 27100 ft | 402 kts | 220° |
| 2026-04-26 12:50 | 50.90663 | -1.39618 | 27267 ft | 404 kts | 215° |
| 2026-04-26 12:50 | 50.88312 | -1.42063 | 27307 ft | 403 kts | 214° |
| 2026-04-26 12:50 | 50.85968 | -1.44491 | 27292 ft | 402 kts | 214° |
| 2026-04-26 12:50 | 50.83620 | -1.46921 | 27303 ft | 402 kts | 214° |
| 2026-04-26 12:51 | 50.81274 | -1.49347 | 27307 ft | 402 kts | 214° |
| 2026-04-26 12:51 | 50.78927 | -1.51772 | 27305 ft | 402 kts | 214° |
| 2026-04-26 12:51 | 50.76584 | -1.54191 | 27305 ft | 402 kts | 214° |
| 2026-04-26 12:51 | 50.74267 | -1.56585 | 27304 ft | 402 kts | 214° |
| 2026-04-26 12:52 | 50.71924 | -1.59002 | 27305 ft | 402 kts | 214° |
| 2026-04-26 12:52 | 50.69580 | -1.61421 | 27304 ft | 402 kts | 214° |
| 2026-04-26 12:52 | 50.67233 | -1.63842 | 27304 ft | 402 kts | 214° |
| 2026-04-26 12:52 | 50.64886 | -1.66258 | 27304 ft | 402 kts | 214° |
| 2026-04-26 12:53 | 50.62538 | -1.68670 | 27296 ft | 402 kts | 215° |
| 2026-04-26 12:53 | 50.60192 | -1.71077 | 27307 ft | 401 kts | 215° |
| 2026-04-26 12:53 | 50.57882 | -1.73446 | 27304 ft | 401 kts | 215° |
| 2026-04-26 12:53 | 50.55543 | -1.75839 | 27304 ft | 401 kts | 215° |
| 2026-04-26 12:54 | 50.53198 | -1.78234 | 27301 ft | 401 kts | 215° |
| 2026-04-26 12:54 | 50.50856 | -1.80627 | 27301 ft | 401 kts | 215° |
| 2026-04-26 12:54 | 50.48516 | -1.83017 | 27299 ft | 401 kts | 215° |
| 2026-04-26 12:54 | 50.46175 | -1.85404 | 27302 ft | 401 kts | 214° |
| 2026-04-26 12:55 | 50.43834 | -1.87786 | 27297 ft | 401 kts | 214° |
| 2026-04-26 12:55 | 50.41496 | -1.90162 | 27296 ft | 400 kts | 214° |
| 2026-04-26 12:55 | 50.39186 | -1.92510 | 27290 ft | 400 kts | 214° |
| 2026-04-26 12:55 | 50.36850 | -1.94884 | 27293 ft | 400 kts | 214° |
| 2026-04-26 12:56 | 50.34508 | -1.97262 | 27293 ft | 399 kts | 214° |
| 2026-04-26 12:56 | 50.32166 | -1.99629 | 27293 ft | 400 kts | 213° |
| 2026-04-26 12:56 | 50.29666 | -2.01560 | 27289 ft | 402 kts | 204° |
| 2026-04-26 12:56 | 50.27096 | -2.03144 | 27282 ft | 402 kts | 203° |
| 2026-04-26 12:57 | 50.24488 | -2.04742 | 27282 ft | 402 kts | 203° |
| 2026-04-26 12:57 | 50.21876 | -2.06335 | 27280 ft | 402 kts | 203° |
| 2026-04-26 12:57 | 50.19267 | -2.07922 | 27280 ft | 402 kts | 203° |
| 2026-04-26 12:58 | 50.14076 | -2.11062 | 27280 ft | 401 kts | 203° |
| 2026-04-26 12:58 | 50.11470 | -2.12637 | 27275 ft | 401 kts | 203° |
| 2026-04-26 12:58 | 50.08856 | -2.14219 | 27278 ft | 401 kts | 203° |
| 2026-04-26 12:58 | 50.06249 | -2.15798 | 27273 ft | 401 kts | 203° |
| 2026-04-26 12:59 | 50.03643 | -2.17376 | 27277 ft | 401 kts | 203° |
| 2026-04-26 12:59 | 50.01038 | -2.18954 | 27280 ft | 401 kts | 203° |
| 2026-04-26 12:59 | 49.98465 | -2.20508 | 27275 ft | 401 kts | 203° |
| 2026-04-26 12:59 | 49.95858 | -2.22079 | 27275 ft | 401 kts | 203° |
| 2026-04-26 13:00 | 49.93257 | -2.23641 | 27269 ft | 400 kts | 203° |
| 2026-04-26 13:00 | 49.90659 | -2.25203 | 27276 ft | 400 kts | 203° |
| 2026-04-26 13:00 | 49.88064 | -2.26755 | 27287 ft | 400 kts | 203° |
| 2026-04-26 13:00 | 49.85457 | -2.28310 | 27272 ft | 400 kts | 203° |
| 2026-04-26 13:01 | 49.82857 | -2.29862 | 27274 ft | 400 kts | 203° |
| 2026-04-26 13:01 | 49.80295 | -2.31394 | 27278 ft | 400 kts | 203° |
| 2026-04-26 13:01 | 49.77692 | -2.32951 | 27274 ft | 400 kts | 203° |
| 2026-04-26 13:01 | 49.75088 | -2.34505 | 27275 ft | 400 kts | 203° |
| 2026-04-26 13:02 | 49.72491 | -2.36050 | 27273 ft | 400 kts | 203° |
| 2026-04-26 13:02 | 49.69889 | -2.37594 | 27274 ft | 400 kts | 203° |
| 2026-04-26 13:02 | 49.67286 | -2.39135 | 27272 ft | 400 kts | 203° |
| 2026-04-26 13:02 | 49.64675 | -2.40681 | 27272 ft | 400 kts | 203° |
| 2026-04-26 13:03 | 49.62100 | -2.42209 | 27271 ft | 400 kts | 203° |
| 2026-04-26 13:03 | 49.59491 | -2.43760 | 27270 ft | 400 kts | 203° |
| 2026-04-26 13:03 | 49.56893 | -2.45305 | 27251 ft | 400 kts | 203° |
| 2026-04-26 13:03 | 49.54294 | -2.46845 | 27249 ft | 400 kts | 203° |
| 2026-04-26 13:04 | 49.51687 | -2.48386 | 27248 ft | 400 kts | 203° |
| 2026-04-26 13:04 | 49.49080 | -2.49920 | 27234 ft | 401 kts | 202° |
| 2026-04-26 13:04 | 49.46467 | -2.51455 | 27248 ft | 401 kts | 202° |
| 2026-04-26 13:04 | 49.43882 | -2.52973 | 27247 ft | 402 kts | 203° |
| 2026-04-26 13:05 | 49.41274 | -2.54504 | 27247 ft | 402 kts | 203° |
| 2026-04-26 13:05 | 49.38653 | -2.56044 | 27248 ft | 402 kts | 203° |
| 2026-04-26 13:05 | 49.36032 | -2.57583 | 27247 ft | 402 kts | 203° |
| 2026-04-26 13:05 | 49.33417 | -2.59116 | 27248 ft | 402 kts | 203° |
| 2026-04-26 13:06 | 49.30839 | -2.60625 | 27249 ft | 402 kts | 203° |
| 2026-04-26 13:06 | 49.28524 | -2.61979 | 27249 ft | 402 kts | 203° |
| 2026-04-26 13:06 | 49.25901 | -2.63515 | 27246 ft | 402 kts | 203° |
| 2026-04-26 13:06 | 49.23309 | -2.65027 | 27251 ft | 403 kts | 203° |
| 2026-04-26 13:07 | 49.20685 | -2.66555 | 27256 ft | 404 kts | 203° |
| 2026-04-26 13:07 | 49.18041 | -2.68091 | 27252 ft | 406 kts | 203° |
| 2026-04-26 13:07 | 49.15438 | -2.69600 | 27194 ft | 394 kts | 203° |
| 2026-04-26 13:07 | 49.12900 | -2.71069 | 26769 ft | 388 kts | 203° |
| 2026-04-26 13:08 | 49.10382 | -2.72525 | 26283 ft | 384 kts | 203° |
| 2026-04-26 13:08 | 49.07888 | -2.73966 | 25804 ft | 381 kts | 203° |
| 2026-04-26 13:08 | 49.05413 | -2.75396 | 25326 ft | 377 kts | 203° |
| 2026-04-26 13:08 | 49.03012 | -2.76783 | 24604 ft | 371 kts | 203° |
| 2026-04-26 13:09 | 49.00629 | -2.78158 | 24131 ft | 357 kts | 203° |
| 2026-04-26 13:09 | 48.98341 | -2.79477 | 23656 ft | 344 kts | 203° |
| 2026-04-26 13:09 | 48.96141 | -2.80742 | 23203 ft | 331 kts | 203° |
| 2026-04-26 13:09 | 48.94030 | -2.81954 | 22797 ft | 317 kts | 204° |
| 2026-04-26 13:10 | 48.92002 | -2.83123 | 22411 ft | 306 kts | 204° |
| 2026-04-26 13:10 | 48.90035 | -2.84261 | 22041 ft | 306 kts | 204° |
| 2026-04-26 13:10 | 48.88046 | -2.85410 | 21670 ft | 304 kts | 204° |
| 2026-04-26 13:10 | 48.86067 | -2.86550 | 21273 ft | 302 kts | 204° |
| 2026-04-26 13:11 | 48.84106 | -2.87676 | 20902 ft | 300 kts | 203° |
| 2026-04-26 13:11 | 48.82171 | -2.88783 | 20535 ft | 299 kts | 203° |
| 2026-04-26 13:11 | 48.80228 | -2.89889 | 20166 ft | 297 kts | 203° |
| 2026-04-26 13:11 | 48.78293 | -2.90988 | 19800 ft | 296 kts | 203° |
| 2026-04-26 13:12 | 48.76370 | -2.92083 | 19440 ft | 295 kts | 203° |
| 2026-04-26 13:12 | 48.74469 | -2.93228 | 19078 ft | 292 kts | 209° |
| 2026-04-26 13:12 | 48.72774 | -2.94885 | 18723 ft | 289 kts | 221° |
| 2026-04-26 13:12 | 48.71391 | -2.97082 | 18345 ft | 287 kts | 233° |
| 2026-04-26 13:13 | 48.70389 | -2.99688 | 17951 ft | 287 kts | 246° |
| 2026-04-26 13:13 | 48.69795 | -3.02533 | 17584 ft | 287 kts | 253° |
| 2026-04-26 13:13 | 48.69292 | -3.05460 | 17218 ft | 287 kts | 253° |
| 2026-04-26 13:13 | 48.68807 | -3.08390 | 16854 ft | 286 kts | 254° |
| 2026-04-26 13:14 | 48.68340 | -3.11321 | 16499 ft | 286 kts | 255° |
| 2026-04-26 13:14 | 48.67881 | -3.14248 | 16148 ft | 286 kts | 255° |
| 2026-04-26 13:14 | 48.67420 | -3.17184 | 15791 ft | 286 kts | 255° |
| 2026-04-26 13:14 | 48.66958 | -3.20113 | 15428 ft | 286 kts | 255° |
| 2026-04-26 13:15 | 48.66490 | -3.23055 | 15085 ft | 286 kts | 255° |
| 2026-04-26 13:15 | 48.66027 | -3.25951 | 14739 ft | 287 kts | 255° |
| 2026-04-26 13:15 | 48.65555 | -3.28891 | 14384 ft | 288 kts | 255° |
| 2026-04-26 13:15 | 48.65241 | -3.30843 | 14145 ft | 288 kts | 255° |
| 2026-04-26 13:16 | 48.64604 | -3.34790 | 13635 ft | 289 kts | 255° |
| 2026-04-26 13:16 | 48.64125 | -3.37750 | 13278 ft | 288 kts | 255° |
| 2026-04-26 13:16 | 48.63648 | -3.40696 | 12909 ft | 288 kts | 255° |
| 2026-04-26 13:16 | 48.63179 | -3.43595 | 12550 ft | 287 kts | 255° |
| 2026-04-26 13:17 | 48.62226 | -3.49486 | 11813 ft | 287 kts | 255° |
| 2026-04-26 13:17 | 48.61749 | -3.52423 | 11438 ft | 287 kts | 255° |
| 2026-04-26 13:18 | 48.60801 | -3.58245 | 10683 ft | 287 kts | 255° |
| 2026-04-26 13:18 | 48.60318 | -3.61164 | 10301 ft | 286 kts | 255° |
| 2026-04-26 13:18 | 48.59341 | -3.67002 | 9468 ft | 286 kts | 254° |
| 2026-04-26 13:19 | 48.58857 | -3.69914 | 9079 ft | 284 kts | 255° |
| 2026-04-26 13:19 | 48.58375 | -3.72809 | 8680 ft | 283 kts | 254° |
| 2026-04-26 13:19 | 48.57892 | -3.75685 | 8284 ft | 282 kts | 255° |
| 2026-04-26 13:19 | 48.57415 | -3.78517 | 7938 ft | 280 kts | 254° |
| 2026-04-26 13:20 | 48.56936 | -3.81355 | 7408 ft | 275 kts | 255° |
| 2026-04-26 13:20 | 48.56467 | -3.84139 | 6845 ft | 270 kts | 254° |
| 2026-04-26 13:20 | 48.56010 | -3.86850 | 6406 ft | 262 kts | 255° |
| 2026-04-26 13:20 | 48.55560 | -3.89515 | 5990 ft | 262 kts | 255° |
| 2026-04-26 13:21 | 48.55105 | -3.92198 | 5574 ft | 264 kts | 254° |
| 2026-04-26 13:21 | 48.54804 | -3.93975 | 5306 ft | 263 kts | 253° |
| 2026-04-26 13:21 | 48.54211 | -3.97481 | 5095 ft | 248 kts | 253° |
| 2026-04-26 13:21 | 48.53797 | -3.99922 | 5021 ft | 236 kts | 253° |
| 2026-04-26 13:22 | 48.53465 | -4.02303 | 4934 ft | 227 kts | 257° |
| 2026-04-26 13:22 | 48.53104 | -4.04573 | 4834 ft | 218 kts | 252° |
| 2026-04-26 13:22 | 48.52656 | -4.06710 | 4765 ft | 209 kts | 250° |
| 2026-04-26 13:22 | 48.52194 | -4.08791 | 4554 ft | 210 kts | 250° |
| 2026-04-26 13:23 | 48.51734 | -4.10856 | 4304 ft | 207 kts | 250° |
| 2026-04-26 13:23 | 48.51279 | -4.12905 | 4074 ft | 202 kts | 249° |
| 2026-04-26 13:23 | 48.50838 | -4.14878 | 3783 ft | 199 kts | 250° |
| 2026-04-26 13:23 | 48.50400 | -4.16843 | 3524 ft | 195 kts | 250° |
| 2026-04-26 13:24 | 48.49969 | -4.18767 | 3250 ft | 187 kts | 249° |
| 2026-04-26 13:24 | 48.49700 | -4.19977 | 3101 ft | 181 kts | 250° |
| 2026-04-26 13:24 | 48.49181 | -4.22297 | 2769 ft | 169 kts | 250° |
| 2026-04-26 13:24 | 48.48818 | -4.23919 | 2554 ft | 159 kts | 251° |
| 2026-04-26 13:25 | 48.48473 | -4.25459 | 2349 ft | 152 kts | 250° |
| 2026-04-26 13:25 | 48.48138 | -4.26951 | 2146 ft | 149 kts | 251° |
| 2026-04-26 13:25 | 48.47919 | -4.27928 | 2028 ft | 148 kts | 251° |
| 2026-04-26 13:25 | 48.47483 | -4.29871 | 1764 ft | 145 kts | 251° |
| 2026-04-26 13:26 | 48.47268 | -4.30827 | 1633 ft | 145 kts | 252° |
| 2026-04-26 13:26 | 48.46947 | -4.32259 | 1437 ft | 144 kts | 252° |
| 2026-04-26 13:26 | 48.46623 | -4.33695 | 1244 ft | 144 kts | 254° |
| 2026-04-26 13:26 | 48.46302 | -4.35128 | 1049 ft | 143 kts | 256° |
| 2026-04-26 13:27 | 48.45984 | -4.36544 | 830 ft | 141 kts | 254° |
| 2026-04-26 13:27 | 48.45669 | -4.37937 | 682 ft | 141 kts | 253° |
| 2026-04-26 13:27 | 48.45360 | -4.39330 | 502 ft | 140 kts | 252° |
| 2026-04-26 13:27 | 48.45044 | -4.40702 | 336 ft | 138 kts | 255° |
| 2026-04-26 13:28 | 48.44791 | -4.41838 | 337 ft | 80 kts | 251° |
| 2026-04-26 13:28 | 48.44701 | -4.42161 | 328 ft | 5 kts | 184° |
| 2026-04-26 13:28 | 48.44675 | -4.42153 | 331 ft | 3 kts | 169° |
| 2026-04-26 13:28 | 48.44588 | -4.42112 | 332 ft | 13 kts | 162° |
| 2026-04-26 13:29 | 48.44509 | -4.42082 | 332 ft | 10 kts | 179° |
| 2026-04-26 13:29 | 48.44457 | -4.42091 | 332 ft | 5 kts | 190° |
| 2026-04-26 13:29 | 48.44423 | -4.42101 | 331 ft | 4 kts | 191° |
| 2026-04-26 13:29 | 48.44419 | -4.42103 | 331 ft | 0 kts | 191° |